Reading, United Kingdom
Current Conditions -  °F | °C
As of 12:50 PM on Friday 31 Oct 2014 (Local Time) from EGUB Reporting Station
Clear Clear  
Wind Chill: 21°   Ceiling: Unl
Heat Index: 21°   Visibility: 6mi
Dew Point: 13°   Wind: 15mph
Humidity: 60%   Direction: 130°SE
Pressure: 29.97"   Gusts: NA
Location:  51.45°N, 0.99°W
Report Text: EGUB 311250Z 13013KT CAVOK 21/13 Q1015 BLU NOSIG
Loading
Personal Weather Stations






























Interactive Weather Map
Tropical Storm Tracking
New forecast layout! Learn more

10-Day Weather Forecast

Advertisements
Track Severe Weather on mobile